createdAt,value
2022-09-01T19:42:41.100Z,21.70
2022-09-01T19:49:14.347Z,21.72
2022-09-01T19:55:41.843Z,21.72
2022-09-01T20:02:20.914Z,21.72
2022-09-01T20:08:57.070Z,21.72
2022-09-01T20:15:37.098Z,21.75
2022-09-01T20:22:01.467Z,21.75
2022-09-01T20:28:43.828Z,21.76
2022-09-01T20:35:08.216Z,21.77
2022-09-01T20:41:39.679Z,21.77
2022-09-01T20:48:04.187Z,21.77
2022-09-01T20:54:56.588Z,21.77
2022-09-01T21:01:27.231Z,21.75
2022-09-01T21:07:54.533Z,21.74
2022-09-01T21:14:29.607Z,21.72
2022-09-01T21:21:05.588Z,21.70
2022-09-01T21:27:31.217Z,21.70
2022-09-01T21:33:55.477Z,21.69
2022-09-01T21:40:23.798Z,21.66
2022-09-01T21:47:04.753Z,21.63
2022-09-01T21:53:29.607Z,21.58
2022-09-01T21:59:54.788Z,21.55
2022-09-01T22:06:19.683Z,21.53
2022-09-01T22:12:44.155Z,21.49
2022-09-01T22:19:09.258Z,21.46
2022-09-01T22:25:34.156Z,21.44
2022-09-01T22:31:59.139Z,21.41
2022-09-01T22:38:24.096Z,21.39
2022-09-01T22:44:49.104Z,21.36
2022-09-01T22:51:14.180Z,21.34
2022-09-01T22:57:41.660Z,21.32
2022-09-01T23:04:06.736Z,21.30
2022-09-01T23:10:31.624Z,21.28
2022-09-01T23:16:58.114Z,21.25
2022-09-01T23:23:04.641Z,21.23
2022-09-01T23:29:29.545Z,21.22
2022-09-01T23:35:55.721Z,21.19
2022-09-01T23:42:23.452Z,21.16
2022-09-01T23:48:28.034Z,21.13
2022-09-01T23:54:53.194Z,20.80
